Joffre, Pennsylvania
Current Conditions -  °F | °C
As of 11:13 AM on Wednesday 26 Nov 2014 (Local Time) from KPIT Reporting Station
Light Snow Light Snow  
Wind Chill: 25°   Ceiling: 2000
Heat Index: 31°   Visibility: 0.75mi
Dew Point: 29°   Wind: 6mph
Humidity: 92%   Direction: 10°N
Pressure: 30.06"   Gusts: NA
Location:  40.38°N, 80.36°W
Report Text: KPIT 261613Z 01005KT 3/4SM R28R/4500V5500FT -SN SCT013 OVC020 M01/M02 A3006 RMK AO2 P0001 T10061017
Loading
Personal Weather Stations






























Interactive Weather Map New forecast layout! Learn more

10-Day Weather Forecast

Advertisements
Track Severe Weather on mobile